sensor_id;sensor_type;location;lat;lon;timestamp;P1;durP1;ratioP1;P2;durP2;ratioP2
27744;SDS011;61387;48.112;8.616;2024-02-15T00:00:51;6.77;;;2.63;;
27744;SDS011;61387;48.112;8.616;2024-02-15T00:03:18;4.80;;;2.47;;
27744;SDS011;61387;48.112;8.616;2024-02-15T00:05:44;5.33;;;2.50;;
27744;SDS011;61387;48.112;8.616;2024-02-15T00:08:11;6.27;;;2.57;;
27744;SDS011;61387;48.112;8.616;2024-02-15T00:10:36;5.50;;;2.67;;
27744;SDS011;61387;48.112;8.616;2024-02-15T00:13:02;4.85;;;2.95;;
27744;SDS011;61387;48.112;8.616;2024-02-15T00:15:31;5.30;;;2.80;;
27744;SDS011;61387;48.112;8.616;2024-02-15T00:17:56;4.30;;;2.53;;
27744;SDS011;61387;48.112;8.616;2024-02-15T00:20:22;4.57;;;2.33;;
27744;SDS011;61387;48.112;8.616;2024-02-15T00:22:48;6.37;;;2.50;;
27744;SDS011;61387;48.112;8.616;2024-02-15T00:25:14;3.97;;;2.47;;
27744;SDS011;61387;48.112;8.616;2024-02-15T00:27:40;5.33;;;2.90;;
27744;SDS011;61387;48.112;8.616;2024-02-15T00:30:06;5.77;;;2.57;;
27744;SDS011;61387;48.112;8.616;2024-02-15T00:32:32;4.50;;;2.53;;
27744;SDS011;61387;48.112;8.616;2024-02-15T00:34:58;5.97;;;2.97;;
27744;SDS011;61387;48.112;8.616;2024-02-15T00:37:24;3.97;;;2.20;;
27744;SDS011;61387;48.112;8.616;2024-02-15T00:39:50;5.78;;;2.75;;
27744;SDS011;61387;48.112;8.616;2024-02-15T00:42:15;3.63;;;2.13;;
27744;SDS011;61387;48.112;8.616;2024-02-15T00:44:41;6.63;;;2.70;;
27744;SDS011;61387;48.112;8.616;2024-02-15T00:47:07;5.17;;;2.50;;
27744;SDS011;61387;48.112;8.616;2024-02-15T00:49:34;4.53;;;2.47;;
27744;SDS011;61387;48.112;8.616;2024-02-15T00:52:00;3.23;;;2.13;;
27744;SDS011;61387;48.112;8.616;2024-02-15T00:54:26;5.33;;;2.80;;
27744;SDS011;61387;48.112;8.616;2024-02-15T00:56:52;5.07;;;2.93;;
27744;SDS011;61387;48.112;8.616;2024-02-15T00:59:18;4.27;;;2.50;;
27744;SDS011;61387;48.112;8.616;2024-02-15T01:01:44;5.03;;;3.10;;
27744;SDS011;61387;48.112;8.616;2024-02-15T01:04:11;8.80;;;3.10;;
27744;SDS011;61387;48.112;8.616;2024-02-15T01:06:37;5.10;;;2.40;;
27744;SDS011;61387;48.112;8.616;2024-02-15T01:09:02;7.87;;;2.90;;
27744;SDS011;61387;48.112;8.616;2024-02-15T01:11:29;3.63;;;2.27;;
27744;SDS011;61387;48.112;8.616;2024-02-15T01:13:58;4.33;;;2.40;;
27744;SDS011;61387;48.112;8.616;2024-02-15T01:16:24;2.80;;;2.10;;
27744;SDS011;61387;48.112;8.616;2024-02-15T01:18:49;5.40;;;2.47;;
27744;SDS011;61387;48.112;8.616;2024-02-15T01:21:15;4.77;;;2.30;;
27744;SDS011;61387;48.112;8.616;2024-02-15T01:23:42;4.43;;;2.20;;
27744;SDS011;61387;48.112;8.616;2024-02-15T01:26:08;5.17;;;2.37;;
27744;SDS011;61387;48.112;8.616;2024-02-15T01:28:33;5.83;;;2.43;;
27744;SDS011;61387;48.112;8.616;2024-02-15T01:30:59;3.27;;;2.17;;
27744;SDS011;61387;48.112;8.616;2024-02-15T01:33:25;4.93;;;2.50;;
27744;SDS011;61387;48.112;8.616;2024-02-15T01:35:51;4.20;;;2.50;;
27744;SDS011;61387;48.112;8.616;2024-02-15T01:38:17;4.70;;;2.63;;
27744;SDS011;61387;48.112;8.616;2024-02-15T01:43:13;7.93;;;2.30;;
27744;SDS011;61387;48.112;8.616;2024-02-15T01:45:39;3.93;;;2.30;;
27744;SDS011;61387;48.112;8.616;2024-02-15T01:48:05;5.87;;;2.90;;
27744;SDS011;61387;48.112;8.616;2024-02-15T01:50:32;6.43;;;2.77;;
27744;SDS011;61387;48.112;8.616;2024-02-15T01:52:59;3.70;;;2.03;;
27744;SDS011;61387;48.112;8.616;2024-02-15T01:55:25;4.37;;;2.83;;
27744;SDS011;61387;48.112;8.616;2024-02-15T01:57:51;5.53;;;2.97;;
27744;SDS011;61387;48.112;8.616;2024-02-15T02:00:17;5.50;;;2.80;;
27744;SDS011;61387;48.112;8.616;2024-02-15T02:02:44;7.27;;;2.80;;
27744;SDS011;61387;48.112;8.616;2024-02-15T02:05:10;6.97;;;3.53;;
27744;SDS011;61387;48.112;8.616;2024-02-15T02:07:36;5.23;;;2.97;;
27744;SDS011;61387;48.112;8.616;2024-02-15T02:10:02;7.47;;;3.03;;
27744;SDS011;61387;48.112;8.616;2024-02-15T02:12:28;5.37;;;3.20;;
27744;SDS011;61387;48.112;8.616;2024-02-15T02:14:54;4.30;;;2.90;;
27744;SDS011;61387;48.112;8.616;2024-02-15T02:17:20;5.93;;;3.00;;
27744;SDS011;61387;48.112;8.616;2024-02-15T02:19:46;6.13;;;3.30;;
27744;SDS011;61387;48.112;8.616;2024-02-15T02:22:15;7.43;;;3.40;;
27744;SDS011;61387;48.112;8.616;2024-02-15T02:24:59;7.20;;;3.30;;
27744;SDS011;61387;48.112;8.616;2024-02-15T02:27:33;7.30;;;3.77;;
27744;SDS011;61387;48.112;8.616;2024-02-15T02:29:59;4.97;;;2.83;;
27744;SDS011;61387;48.112;8.616;2024-02-15T02:32:25;6.63;;;3.40;;
27744;SDS011;61387;48.112;8.616;2024-02-15T02:34:52;6.43;;;3.27;;
27744;SDS011;61387;48.112;8.616;2024-02-15T02:37:22;6.10;;;3.57;;
27744;SDS011;61387;48.112;8.616;2024-02-15T02:39:51;5.77;;;3.10;;
27744;SDS011;61387;48.112;8.616;2024-02-15T02:42:18;8.90;;;3.70;;
27744;SDS011;61387;48.112;8.616;2024-02-15T02:44:44;9.77;;;4.20;;
27744;SDS011;61387;48.112;8.616;2024-02-15T02:47:10;8.10;;;3.83;;
27744;SDS011;61387;48.112;8.616;2024-02-15T02:49:36;9.27;;;3.57;;
27744;SDS011;61387;48.112;8.616;2024-02-15T02:52:02;7.40;;;3.80;;
27744;SDS011;61387;48.112;8.616;2024-02-15T02:54:28;7.00;;;3.77;;
27744;SDS011;61387;48.112;8.616;2024-02-15T02:56:54;4.27;;;2.93;;
27744;SDS011;61387;48.112;8.616;2024-02-15T02:59:20;5.73;;;3.20;;
27744;SDS011;61387;48.112;8.616;2024-02-15T03:01:46;6.43;;;3.10;;
27744;SDS011;61387;48.112;8.616;2024-02-15T03:04:14;6.53;;;3.00;;
27744;SDS011;61387;48.112;8.616;2024-02-15T03:06:41;7.97;;;3.70;;
27744;SDS011;61387;48.112;8.616;2024-02-15T03:09:07;7.23;;;3.73;;
27744;SDS011;61387;48.112;8.616;2024-02-15T03:11:34;8.03;;;3.40;;
27744;SDS011;61387;48.112;8.616;2024-02-15T03:14:00;5.67;;;3.37;;
27744;SDS011;61387;48.112;8.616;2024-02-15T03:16:31;7.20;;;3.67;;
27744;SDS011;61387;48.112;8.616;2024-02-15T03:18:57;7.93;;;3.47;;
27744;SDS011;61387;48.112;8.616;2024-02-15T03:21:23;6.53;;;3.20;;
27744;SDS011;61387;48.112;8.616;2024-02-15T03:23:49;6.00;;;2.97;;
27744;SDS011;61387;48.112;8.616;2024-02-15T03:26:15;5.83;;;3.23;;
27744;SDS011;61387;48.112;8.616;2024-02-15T03:28:46;6.20;;;3.10;;
27744;SDS011;61387;48.112;8.616;2024-02-15T03:31:12;3.93;;;2.57;;
27744;SDS011;61387;48.112;8.616;2024-02-15T03:33:38;7.63;;;2.90;;
27744;SDS011;61387;48.112;8.616;2024-02-15T03:36:04;5.17;;;3.20;;
27744;SDS011;61387;48.112;8.616;2024-02-15T03:38:30;5.23;;;3.00;;
27744;SDS011;61387;48.112;8.616;2024-02-15T03:40:57;7.50;;;3.00;;
27744;SDS011;61387;48.112;8.616;2024-02-15T03:43:23;5.70;;;2.80;;
27744;SDS011;61387;48.112;8.616;2024-02-15T03:45:49;6.33;;;2.97;;
27744;SDS011;61387;48.112;8.616;2024-02-15T03:48:16;5.17;;;2.70;;
27744;SDS011;61387;48.112;8.616;2024-02-15T03:50:42;6.90;;;3.20;;
27744;SDS011;61387;48.112;8.616;2024-02-15T03:53:11;4.93;;;2.87;;
27744;SDS011;61387;48.112;8.616;2024-02-15T03:55:37;7.43;;;3.43;;
27744;SDS011;61387;48.112;8.616;2024-02-15T03:58:03;8.90;;;3.83;;
27744;SDS011;61387;48.112;8.616;2024-02-15T04:00:29;9.23;;;3.90;;
27744;SDS011;61387;48.112;8.616;2024-02-15T04:02:55;7.93;;;3.47;;
27744;SDS011;61387;48.112;8.616;2024-02-15T04:05:21;7.40;;;3.67;;
27744;SDS011;61387;48.112;8.616;2024-02-15T04:07:48;8.93;;;4.10;;
27744;SDS011;61387;48.112;8.616;2024-02-15T04:10:14;4.70;;;3.10;;
27744;SDS011;61387;48.112;8.616;2024-02-15T04:12:43;5.37;;;3.20;;
27744;SDS011;61387;48.112;8.616;2024-02-15T04:15:09;5.70;;;2.97;;
27744;SDS011;61387;48.112;8.616;2024-02-15T04:17:39;5.67;;;2.97;;
27744;SDS011;61387;48.112;8.616;2024-02-15T04:20:05;5.00;;;3.40;;
27744;SDS011;61387;48.112;8.616;2024-02-15T04:22:32;6.17;;;3.10;;
27744;SDS011;61387;48.112;8.616;2024-02-15T04:25:08;5.47;;;3.03;;
27744;SDS011;61387;48.112;8.616;2024-02-15T04:27:35;5.87;;;2.70;;
27744;SDS011;61387;48.112;8.616;2024-02-15T04:30:04;6.10;;;3.10;;
27744;SDS011;61387;48.112;8.616;2024-02-15T04:32:30;4.80;;;2.53;;
27744;SDS011;61387;48.112;8.616;2024-02-15T04:34:58;3.90;;;2.73;;
27744;SDS011;61387;48.112;8.616;2024-02-15T04:37:24;5.17;;;2.70;;
27744;SDS011;61387;48.112;8.616;2024-02-15T04:39:52;6.20;;;2.73;;
27744;SDS011;61387;48.112;8.616;2024-02-15T04:42:17;5.07;;;2.50;;
27744;SDS011;61387;48.112;8.616;2024-02-15T04:44:43;5.37;;;2.70;;
27744;SDS011;61387;48.112;8.616;2024-02-15T04:47:09;5.03;;;2.53;;
27744;SDS011;61387;48.112;8.616;2024-02-15T04:49:34;3.80;;;2.30;;
27744;SDS011;61387;48.112;8.616;2024-02-15T04:52:03;3.80;;;2.77;;
27744;SDS011;61387;48.112;8.616;2024-02-15T04:54:30;4.00;;;2.30;;
27744;SDS011;61387;48.112;8.616;2024-02-15T04:56:57;4.23;;;2.40;;
27744;SDS011;61387;48.112;8.616;2024-02-15T04:59:23;6.33;;;2.63;;
27744;SDS011;61387;48.112;8.616;2024-02-15T05:01:54;7.03;;;2.93;;
27744;SDS011;61387;48.112;8.616;2024-02-15T05:04:23;4.80;;;3.03;;
27744;SDS011;61387;48.112;8.616;2024-02-15T05:06:49;6.13;;;3.43;;
27744;SDS011;61387;48.112;8.616;2024-02-15T05:09:15;8.97;;;3.43;;
27744;SDS011;61387;48.112;8.616;2024-02-15T05:11:43;11.07;;;4.50;;
27744;SDS011;61387;48.112;8.616;2024-02-15T05:14:12;8.57;;;4.63;;
27744;SDS011;61387;48.112;8.616;2024-02-15T05:16:43;9.20;;;4.50;;
27744;SDS011;61387;48.112;8.616;2024-02-15T05:19:12;8.77;;;4.67;;
27744;SDS011;61387;48.112;8.616;2024-02-15T05:21:38;9.63;;;4.23;;
27744;SDS011;61387;48.112;8.616;2024-02-15T05:24:05;10.40;;;4.50;;
27744;SDS011;61387;48.112;8.616;2024-02-15T05:26:31;8.67;;;4.50;;
27744;SDS011;61387;48.112;8.616;2024-02-15T05:28:57;8.10;;;3.90;;
27744;SDS011;61387;48.112;8.616;2024-02-15T05:31:23;8.53;;;4.07;;
27744;SDS011;61387;48.112;8.616;2024-02-15T05:33:53;9.80;;;4.57;;
27744;SDS011;61387;48.112;8.616;2024-02-15T05:36:19;8.67;;;4.53;;
27744;SDS011;61387;48.112;8.616;2024-02-15T05:38:53;10.00;;;4.63;;
27744;SDS011;61387;48.112;8.616;2024-02-15T05:41:19;9.63;;;5.50;;
27744;SDS011;61387;48.112;8.616;2024-02-15T05:43:46;10.47;;;4.90;;
27744;SDS011;61387;48.112;8.616;2024-02-15T05:46:13;10.30;;;4.17;;
27744;SDS011;61387;48.112;8.616;2024-02-15T05:48:40;6.73;;;4.03;;
27744;SDS011;61387;48.112;8.616;2024-02-15T05:51:06;8.27;;;4.37;;
27744;SDS011;61387;48.112;8.616;2024-02-15T05:53:33;8.67;;;5.07;;
27744;SDS011;61387;48.112;8.616;2024-02-15T05:56:00;8.03;;;4.67;;
27744;SDS011;61387;48.112;8.616;2024-02-15T05:58:26;6.50;;;3.80;;
27744;SDS011;61387;48.112;8.616;2024-02-15T06:00:52;9.93;;;4.10;;
27744;SDS011;61387;48.112;8.616;2024-02-15T06:03:20;9.30;;;4.57;;
27744;SDS011;61387;48.112;8.616;2024-02-15T06:05:48;10.37;;;5.07;;
27744;SDS011;61387;48.112;8.616;2024-02-15T06:08:13;10.07;;;5.03;;
27744;SDS011;61387;48.112;8.616;2024-02-15T06:10:40;10.87;;;5.00;;
27744;SDS011;61387;48.112;8.616;2024-02-15T06:13:06;10.63;;;5.80;;
27744;SDS011;61387;48.112;8.616;2024-02-15T06:15:34;11.57;;;5.83;;
27744;SDS011;61387;48.112;8.616;2024-02-15T06:18:00;11.57;;;5.93;;
27744;SDS011;61387;48.112;8.616;2024-02-15T06:20:26;12.43;;;6.47;;
27744;SDS011;61387;48.112;8.616;2024-02-15T06:22:55;11.07;;;5.10;;
27744;SDS011;61387;48.112;8.616;2024-02-15T06:25:21;11.17;;;6.07;;
27744;SDS011;61387;48.112;8.616;2024-02-15T06:27:48;13.70;;;5.70;;
27744;SDS011;61387;48.112;8.616;2024-02-15T06:30:16;9.40;;;5.73;;
27744;SDS011;61387;48.112;8.616;2024-02-15T06:33:00;10.97;;;5.47;;
27744;SDS011;61387;48.112;8.616;2024-02-15T06:36:05;9.87;;;5.57;;
27744;SDS011;61387;48.112;8.616;2024-02-15T06:38:50;10.33;;;4.73;;
27744;SDS011;61387;48.112;8.616;2024-02-15T06:41:34;7.87;;;4.70;;
27744;SDS011;61387;48.112;8.616;2024-02-15T06:43:59;12.68;;;5.25;;
27744;SDS011;61387;48.112;8.616;2024-02-15T06:46:25;13.07;;;6.20;;
27744;SDS011;61387;48.112;8.616;2024-02-15T06:48:50;13.43;;;6.37;;
27744;SDS011;61387;48.112;8.616;2024-02-15T06:51:17;12.93;;;6.33;;
27744;SDS011;61387;48.112;8.616;2024-02-15T06:53:43;12.57;;;6.50;;
27744;SDS011;61387;48.112;8.616;2024-02-15T06:56:09;15.00;;;8.45;;
27744;SDS011;61387;48.112;8.616;2024-02-15T06:58:35;16.57;;;8.43;;
27744;SDS011;61387;48.112;8.616;2024-02-15T07:01:01;14.63;;;7.63;;
27744;SDS011;61387;48.112;8.616;2024-02-15T07:03:30;15.87;;;8.80;;
27744;SDS011;61387;48.112;8.616;2024-02-15T07:05:57;15.97;;;7.77;;
27744;SDS011;61387;48.112;8.616;2024-02-15T07:08:23;13.33;;;8.47;;
27744;SDS011;61387;48.112;8.616;2024-02-15T07:10:49;41.77;;;27.40;;
27744;SDS011;61387;48.112;8.616;2024-02-15T07:13:16;33.03;;;18.00;;
27744;SDS011;61387;48.112;8.616;2024-02-15T07:15:42;27.80;;;14.20;;
27744;SDS011;61387;48.112;8.616;2024-02-15T07:18:09;15.63;;;6.90;;
27744;SDS011;61387;48.112;8.616;2024-02-15T07:20:35;13.20;;;6.53;;
27744;SDS011;61387;48.112;8.616;2024-02-15T07:23:01;11.83;;;6.93;;
27744;SDS011;61387;48.112;8.616;2024-02-15T07:25:28;10.63;;;6.00;;
27744;SDS011;61387;48.112;8.616;2024-02-15T07:27:54;10.80;;;6.20;;
27744;SDS011;61387;48.112;8.616;2024-02-15T07:30:21;11.27;;;6.10;;
27744;SDS011;61387;48.112;8.616;2024-02-15T07:32:48;12.17;;;5.80;;
27744;SDS011;61387;48.112;8.616;2024-02-15T07:35:14;9.53;;;5.00;;
27744;SDS011;61387;48.112;8.616;2024-02-15T07:37:52;12.93;;;6.97;;
27744;SDS011;61387;48.112;8.616;2024-02-15T07:40:24;13.60;;;7.37;;
27744;SDS011;61387;48.112;8.616;2024-02-15T07:42:54;15.40;;;7.37;;
27744;SDS011;61387;48.112;8.616;2024-02-15T07:45:21;14.57;;;7.90;;
27744;SDS011;61387;48.112;8.616;2024-02-15T07:47:48;13.43;;;7.10;;
27744;SDS011;61387;48.112;8.616;2024-02-15T07:50:18;13.27;;;7.03;;
27744;SDS011;61387;48.112;8.616;2024-02-15T07:52:48;11.43;;;6.83;;
27744;SDS011;61387;48.112;8.616;2024-02-15T07:55:14;10.73;;;5.40;;
27744;SDS011;61387;48.112;8.616;2024-02-15T07:57:40;8.50;;;5.57;;
27744;SDS011;61387;48.112;8.616;2024-02-15T08:00:06;10.93;;;5.63;;
27744;SDS011;61387;48.112;8.616;2024-02-15T08:02:41;10.70;;;5.80;;
27744;SDS011;61387;48.112;8.616;2024-02-15T08:07:37;13.60;;;7.37;;
27744;SDS011;61387;48.112;8.616;2024-02-15T08:10:05;13.57;;;7.03;;
27744;SDS011;61387;48.112;8.616;2024-02-15T08:12:37;9.30;;;5.53;;
27744;SDS011;61387;48.112;8.616;2024-02-15T08:15:03;10.30;;;6.67;;
27744;SDS011;61387;48.112;8.616;2024-02-15T08:17:29;11.97;;;8.10;;
27744;SDS011;61387;48.112;8.616;2024-02-15T08:19:55;10.43;;;7.37;;
27744;SDS011;61387;48.112;8.616;2024-02-15T08:22:21;13.17;;;8.30;;
27744;SDS011;61387;48.112;8.616;2024-02-15T08:24:49;11.30;;;7.97;;
27744;SDS011;61387;48.112;8.616;2024-02-15T08:27:17;13.47;;;7.20;;
27744;SDS011;61387;48.112;8.616;2024-02-15T08:29:42;12.40;;;7.27;;
27744;SDS011;61387;48.112;8.616;2024-02-15T08:32:08;12.93;;;7.60;;
27744;SDS011;61387;48.112;8.616;2024-02-15T08:34:35;12.93;;;7.07;;
27744;SDS011;61387;48.112;8.616;2024-02-15T08:37:01;12.30;;;6.03;;
27744;SDS011;61387;48.112;8.616;2024-02-15T08:39:27;12.50;;;7.07;;
27744;SDS011;61387;48.112;8.616;2024-02-15T08:41:53;11.87;;;6.20;;
27744;SDS011;61387;48.112;8.616;2024-02-15T08:44:19;9.40;;;5.87;;
27744;SDS011;61387;48.112;8.616;2024-02-15T08:46:46;12.67;;;6.40;;
27744;SDS011;61387;48.112;8.616;2024-02-15T08:49:13;13.27;;;6.53;;
27744;SDS011;61387;48.112;8.616;2024-02-15T08:51:38;14.45;;;7.68;;
27744;SDS011;61387;48.112;8.616;2024-02-15T08:54:04;13.03;;;7.27;;
27744;SDS011;61387;48.112;8.616;2024-02-15T08:56:29;11.43;;;7.03;;
27744;SDS011;61387;48.112;8.616;2024-02-15T08:58:57;10.23;;;6.70;;
27744;SDS011;61387;48.112;8.616;2024-02-15T09:01:24;14.77;;;7.63;;
27744;SDS011;61387;48.112;8.616;2024-02-15T09:03:50;12.37;;;6.83;;
27744;SDS011;61387;48.112;8.616;2024-02-15T09:06:16;12.63;;;7.63;;
27744;SDS011;61387;48.112;8.616;2024-02-15T09:08:41;11.77;;;7.30;;
27744;SDS011;61387;48.112;8.616;2024-02-15T09:11:07;14.70;;;7.50;;
27744;SDS011;61387;48.112;8.616;2024-02-15T09:13:37;11.93;;;7.67;;
27744;SDS011;61387;48.112;8.616;2024-02-15T09:16:03;11.07;;;6.67;;
27744;SDS011;61387;48.112;8.616;2024-02-15T09:18:29;12.67;;;7.60;;
27744;SDS011;61387;48.112;8.616;2024-02-15T09:20:55;14.87;;;7.57;;
27744;SDS011;61387;48.112;8.616;2024-02-15T09:23:21;15.23;;;7.10;;
27744;SDS011;61387;48.112;8.616;2024-02-15T09:25:48;13.60;;;7.17;;
27744;SDS011;61387;48.112;8.616;2024-02-15T09:28:16;11.00;;;6.87;;
27744;SDS011;61387;48.112;8.616;2024-02-15T09:30:47;9.90;;;5.97;;
27744;SDS011;61387;48.112;8.616;2024-02-15T09:33:13;13.30;;;6.90;;
27744;SDS011;61387;48.112;8.616;2024-02-15T09:35:40;11.33;;;6.87;;
27744;SDS011;61387;48.112;8.616;2024-02-15T09:38:09;10.47;;;6.63;;
27744;SDS011;61387;48.112;8.616;2024-02-15T09:40:36;11.60;;;7.17;;
27744;SDS011;61387;48.112;8.616;2024-02-15T09:43:03;9.03;;;5.70;;
27744;SDS011;61387;48.112;8.616;2024-02-15T09:45:30;9.40;;;5.57;;
27744;SDS011;61387;48.112;8.616;2024-02-15T09:47:57;11.80;;;5.97;;
27744;SDS011;61387;48.112;8.616;2024-02-15T09:50:30;9.47;;;5.37;;
27744;SDS011;61387;48.112;8.616;2024-02-15T09:52:59;11.13;;;5.30;;
27744;SDS011;61387;48.112;8.616;2024-02-15T09:55:29;9.67;;;4.87;;
27744;SDS011;61387;48.112;8.616;2024-02-15T09:57:55;8.10;;;5.20;;
27744;SDS011;61387;48.112;8.616;2024-02-15T10:00:21;9.70;;;4.43;;
27744;SDS011;61387;48.112;8.616;2024-02-15T10:02:47;6.70;;;3.90;;
27744;SDS011;61387;48.112;8.616;2024-02-15T10:05:16;7.03;;;4.17;;
27744;SDS011;61387;48.112;8.616;2024-02-15T10:07:42;8.67;;;4.00;;
27744;SDS011;61387;48.112;8.616;2024-02-15T10:10:19;8.40;;;4.03;;
27744;SDS011;61387;48.112;8.616;2024-02-15T10:12:50;7.03;;;4.20;;
27744;SDS011;61387;48.112;8.616;2024-02-15T10:15:35;6.90;;;4.03;;
27744;SDS011;61387;48.112;8.616;2024-02-15T10:18:06;8.80;;;4.23;;
27744;SDS011;61387;48.112;8.616;2024-02-15T10:20:34;7.30;;;4.17;;
27744;SDS011;61387;48.112;8.616;2024-02-15T10:25:42;7.00;;;3.87;;
27744;SDS011;61387;48.112;8.616;2024-02-15T10:28:09;5.57;;;3.77;;
27744;SDS011;61387;48.112;8.616;2024-02-15T10:30:36;7.77;;;3.63;;
27744;SDS011;61387;48.112;8.616;2024-02-15T10:33:04;6.00;;;3.73;;
27744;SDS011;61387;48.112;8.616;2024-02-15T10:35:31;8.33;;;3.67;;
27744;SDS011;61387;48.112;8.616;2024-02-15T10:38:09;10.00;;;3.60;;
27744;SDS011;61387;48.112;8.616;2024-02-15T10:40:36;10.93;;;3.97;;
27744;SDS011;61387;48.112;8.616;2024-02-15T10:43:02;9.70;;;3.67;;
27744;SDS011;61387;48.112;8.616;2024-02-15T10:45:30;6.90;;;3.43;;
27744;SDS011;61387;48.112;8.616;2024-02-15T10:47:56;7.80;;;3.50;;
27744;SDS011;61387;48.112;8.616;2024-02-15T10:50:23;6.00;;;3.13;;
27744;SDS011;61387;48.112;8.616;2024-02-15T10:52:56;6.33;;;3.27;;
27744;SDS011;61387;48.112;8.616;2024-02-15T10:55:40;7.13;;;3.27;;
27744;SDS011;61387;48.112;8.616;2024-02-15T10:58:12;6.80;;;3.40;;
27744;SDS011;61387;48.112;8.616;2024-02-15T11:00:41;5.97;;;3.00;;
27744;SDS011;61387;48.112;8.616;2024-02-15T11:03:11;6.50;;;3.00;;
27744;SDS011;61387;48.112;8.616;2024-02-15T11:05:45;5.70;;;2.70;;
27744;SDS011;61387;48.112;8.616;2024-02-15T11:08:11;5.93;;;2.77;;
27744;SDS011;61387;48.112;8.616;2024-02-15T11:10:37;5.43;;;2.60;;
27744;SDS011;61387;48.112;8.616;2024-02-15T11:13:08;6.50;;;2.80;;
27744;SDS011;61387;48.112;8.616;2024-02-15T11:15:41;5.07;;;2.70;;
27744;SDS011;61387;48.112;8.616;2024-02-15T11:18:10;7.40;;;2.33;;
27744;SDS011;61387;48.112;8.616;2024-02-15T11:23:03;6.33;;;2.57;;
27744;SDS011;61387;48.112;8.616;2024-02-15T11:25:33;5.33;;;2.73;;
27744;SDS011;61387;48.112;8.616;2024-02-15T11:30:46;5.43;;;2.73;;
27744;SDS011;61387;48.112;8.616;2024-02-15T11:33:23;12.67;;;6.50;;
27744;SDS011;61387;48.112;8.616;2024-02-15T11:38:30;5.27;;;3.07;;
27744;SDS011;61387;48.112;8.616;2024-02-15T11:40:59;6.33;;;3.37;;
27744;SDS011;61387;48.112;8.616;2024-02-15T11:46:20;5.47;;;2.20;;
27744;SDS011;61387;48.112;8.616;2024-02-15T11:48:47;6.60;;;2.50;;
27744;SDS011;61387;48.112;8.616;2024-02-15T11:56:54;7.43;;;2.53;;
27744;SDS011;61387;48.112;8.616;2024-02-15T12:00:05;4.20;;;2.13;;
27744;SDS011;61387;48.112;8.616;2024-02-15T12:02:42;1.87;;;1.73;;
27744;SDS011;61387;48.112;8.616;2024-02-15T12:05:26;4.13;;;1.70;;
27744;SDS011;61387;48.112;8.616;2024-02-15T12:08:10;12.77;;;6.83;;
27744;SDS011;61387;48.112;8.616;2024-02-15T12:10:58;4.30;;;2.30;;
27744;SDS011;61387;48.112;8.616;2024-02-15T12:13:43;3.07;;;1.97;;
27744;SDS011;61387;48.112;8.616;2024-02-15T12:16:32;3.93;;;1.70;;
27744;SDS011;61387;48.112;8.616;2024-02-15T12:19:17;2.67;;;1.73;;
27744;SDS011;61387;48.112;8.616;2024-02-15T12:21:42;4.27;;;1.80;;
27744;SDS011;61387;48.112;8.616;2024-02-15T12:24:08;3.07;;;1.60;;
27744;SDS011;61387;48.112;8.616;2024-02-15T12:26:34;4.90;;;2.07;;
27744;SDS011;61387;48.112;8.616;2024-02-15T12:29:00;4.43;;;1.93;;
27744;SDS011;61387;48.112;8.616;2024-02-15T12:31:26;5.17;;;2.37;;
27744;SDS011;61387;48.112;8.616;2024-02-15T12:34:02;2.20;;;1.47;;
27744;SDS011;61387;48.112;8.616;2024-02-15T12:36:34;4.70;;;3.17;;
27744;SDS011;61387;48.112;8.616;2024-02-15T12:39:04;6.17;;;1.77;;
27744;SDS011;61387;48.112;8.616;2024-02-15T12:41:39;2.80;;;1.50;;
27744;SDS011;61387;48.112;8.616;2024-02-15T12:44:06;3.63;;;1.90;;
27744;SDS011;61387;48.112;8.616;2024-02-15T12:46:33;2.33;;;1.30;;
27744;SDS011;61387;48.112;8.616;2024-02-15T12:49:27;2.70;;;1.27;;
27744;SDS011;61387;48.112;8.616;2024-02-15T12:51:54;6.13;;;2.00;;
27744;SDS011;61387;48.112;8.616;2024-02-15T12:55:15;1.87;;;1.03;;
27744;SDS011;61387;48.112;8.616;2024-02-15T12:57:43;1.80;;;1.33;;
27744;SDS011;61387;48.112;8.616;2024-02-15T13:00:15;2.63;;;1.17;;
27744;SDS011;61387;48.112;8.616;2024-02-15T13:02:43;3.00;;;1.67;;
27744;SDS011;61387;48.112;8.616;2024-02-15T13:05:14;3.58;;;1.15;;
27744;SDS011;61387;48.112;8.616;2024-02-15T13:07:43;2.33;;;1.33;;
27744;SDS011;61387;48.112;8.616;2024-02-15T13:10:12;2.33;;;1.20;;
27744;SDS011;61387;48.112;8.616;2024-02-15T13:12:40;1.70;;;1.10;;
27744;SDS011;61387;48.112;8.616;2024-02-15T13:15:08;2.00;;;1.30;;
27744;SDS011;61387;48.112;8.616;2024-02-15T13:17:37;2.40;;;1.40;;
27744;SDS011;61387;48.112;8.616;2024-02-15T13:20:03;3.30;;;1.00;;
27744;SDS011;61387;48.112;8.616;2024-02-15T13:22:32;2.25;;;1.35;;
27744;SDS011;61387;48.112;8.616;2024-02-15T13:24:59;3.37;;;1.60;;
27744;SDS011;61387;48.112;8.616;2024-02-15T13:27:25;4.30;;;1.70;;
27744;SDS011;61387;48.112;8.616;2024-02-15T13:29:51;3.13;;;1.10;;
27744;SDS011;61387;48.112;8.616;2024-02-15T13:32:18;3.97;;;1.50;;
27744;SDS011;61387;48.112;8.616;2024-02-15T13:34:46;3.13;;;1.50;;
27744;SDS011;61387;48.112;8.616;2024-02-15T13:37:21;3.43;;;1.43;;
27744;SDS011;61387;48.112;8.616;2024-02-15T13:39:48;3.93;;;1.20;;
27744;SDS011;61387;48.112;8.616;2024-02-15T13:42:16;4.47;;;1.83;;
27744;SDS011;61387;48.112;8.616;2024-02-15T13:44:42;2.03;;;1.17;;
27744;SDS011;61387;48.112;8.616;2024-02-15T13:47:09;4.13;;;1.80;;
27744;SDS011;61387;48.112;8.616;2024-02-15T13:49:36;3.87;;;1.97;;
27744;SDS011;61387;48.112;8.616;2024-02-15T13:52:02;3.63;;;1.67;;
27744;SDS011;61387;48.112;8.616;2024-02-15T13:54:28;4.13;;;1.60;;
27744;SDS011;61387;48.112;8.616;2024-02-15T13:56:55;3.63;;;1.60;;
27744;SDS011;61387;48.112;8.616;2024-02-15T13:59:21;3.23;;;1.43;;
27744;SDS011;61387;48.112;8.616;2024-02-15T14:01:48;4.33;;;2.90;;
27744;SDS011;61387;48.112;8.616;2024-02-15T14:04:14;4.13;;;1.60;;
27744;SDS011;61387;48.112;8.616;2024-02-15T14:06:41;3.53;;;2.10;;
27744;SDS011;61387;48.112;8.616;2024-02-15T14:09:09;2.87;;;1.23;;
27744;SDS011;61387;48.112;8.616;2024-02-15T14:11:36;5.10;;;1.80;;
27744;SDS011;61387;48.112;8.616;2024-02-15T14:14:02;4.27;;;1.60;;
27744;SDS011;61387;48.112;8.616;2024-02-15T14:16:28;4.63;;;1.50;;
27744;SDS011;61387;48.112;8.616;2024-02-15T14:18:54;2.63;;;1.17;;
27744;SDS011;61387;48.112;8.616;2024-02-15T14:21:20;3.43;;;1.40;;
27744;SDS011;61387;48.112;8.616;2024-02-15T14:23:46;2.53;;;1.20;;
27744;SDS011;61387;48.112;8.616;2024-02-15T14:26:12;3.50;;;1.40;;
27744;SDS011;61387;48.112;8.616;2024-02-15T14:28:37;3.80;;;2.33;;
27744;SDS011;61387;48.112;8.616;2024-02-15T14:31:07;2.67;;;1.30;;
27744;SDS011;61387;48.112;8.616;2024-02-15T14:33:51;6.03;;;1.40;;
27744;SDS011;61387;48.112;8.616;2024-02-15T14:36:17;5.87;;;2.50;;
27744;SDS011;61387;48.112;8.616;2024-02-15T14:38:43;4.93;;;1.60;;
27744;SDS011;61387;48.112;8.616;2024-02-15T14:41:09;3.97;;;1.30;;
27744;SDS011;61387;48.112;8.616;2024-02-15T14:43:36;3.43;;;1.10;;
27744;SDS011;61387;48.112;8.616;2024-02-15T14:46:02;3.60;;;1.67;;
27744;SDS011;61387;48.112;8.616;2024-02-15T14:48:35;5.60;;;1.90;;
27744;SDS011;61387;48.112;8.616;2024-02-15T14:51:01;3.72;;;1.60;;
27744;SDS011;61387;48.112;8.616;2024-02-15T14:53:27;4.23;;;1.67;;
27744;SDS011;61387;48.112;8.616;2024-02-15T14:55:53;4.03;;;2.00;;
27744;SDS011;61387;48.112;8.616;2024-02-15T14:58:19;4.90;;;1.50;;
27744;SDS011;61387;48.112;8.616;2024-02-15T15:00:47;2.87;;;1.33;;
27744;SDS011;61387;48.112;8.616;2024-02-15T15:03:13;2.53;;;1.10;;
27744;SDS011;61387;48.112;8.616;2024-02-15T15:05:39;4.50;;;2.10;;
27744;SDS011;61387;48.112;8.616;2024-02-15T15:08:24;4.63;;;1.80;;
27744;SDS011;61387;48.112;8.616;2024-02-15T15:11:08;4.83;;;2.23;;
27744;SDS011;61387;48.112;8.616;2024-02-15T15:13:53;4.63;;;2.10;;